Terminal Aerodrome Forecast
Issued by NWS Green Bay, WI

Home | Current Version | Previous Version | Graphics & Text | Print | Product List | Glossary On
Versions: 1 2 3 4 5 6 7 8 9 10 11 12 13 14 15
000
FTUS43 KGRB 231253 AAB
TAFGRB
TAF AMD
KGRB 231253Z 2313/2412 27004KT P6SM SCT250
     FM231800 21007KT P6SM SCT050 BKN250
     FM240000 16006KT P6SM BKN250
     FM240400 18003KT P6SM BKN250=

USA.gov is the U.S. government's official web portal to all federal, state and local government web resources and services.